sensor_id;sensor_type;location;lat;lon;timestamp;temperature;humidity
13332;DHT22;6735;51.456;12.626;2023-04-15T00:02:23;7.60;89.50
13332;DHT22;6735;51.456;12.626;2023-04-15T00:04:48;7.60;89.40
13332;DHT22;6735;51.456;12.626;2023-04-15T00:07:14;7.60;89.50
13332;DHT22;6735;51.456;12.626;2023-04-15T00:09:41;7.60;89.40
13332;DHT22;6735;51.456;12.626;2023-04-15T00:12:07;7.60;89.50
13332;DHT22;6735;51.456;12.626;2023-04-15T00:14:33;7.60;89.60
13332;DHT22;6735;51.456;12.626;2023-04-15T00:17:01;7.60;89.60
13332;DHT22;6735;51.456;12.626;2023-04-15T00:19:26;7.60;89.60
13332;DHT22;6735;51.456;12.626;2023-04-15T00:21:52;7.60;89.60
13332;DHT22;6735;51.456;12.626;2023-04-15T00:24:17;7.50;89.70
13332;DHT22;6735;51.456;12.626;2023-04-15T00:26:43;7.50;89.70
13332;DHT22;6735;51.456;12.626;2023-04-15T00:29:08;7.50;89.80
13332;DHT22;6735;51.456;12.626;2023-04-15T00:31:34;7.50;89.80
13332;DHT22;6735;51.456;12.626;2023-04-15T00:34:00;7.50;89.90
13332;DHT22;6735;51.456;12.626;2023-04-15T00:36:26;7.60;89.90
13332;DHT22;6735;51.456;12.626;2023-04-15T00:38:52;7.50;89.90
13332;DHT22;6735;51.456;12.626;2023-04-15T00:41:17;7.50;90.00
13332;DHT22;6735;51.456;12.626;2023-04-15T00:43:43;7.50;90.00
13332;DHT22;6735;51.456;12.626;2023-04-15T00:46:12;7.50;89.90
13332;DHT22;6735;51.456;12.626;2023-04-15T00:48:38;7.50;90.00
13332;DHT22;6735;51.456;12.626;2023-04-15T00:51:04;7.50;90.00
13332;DHT22;6735;51.456;12.626;2023-04-15T00:53:31;7.50;90.00
13332;DHT22;6735;51.456;12.626;2023-04-15T00:55:56;7.50;90.00
13332;DHT22;6735;51.456;12.626;2023-04-15T00:58:22;7.50;90.20
13332;DHT22;6735;51.456;12.626;2023-04-15T01:00:47;7.50;90.10
13332;DHT22;6735;51.456;12.626;2023-04-15T01:03:13;7.50;90.20
13332;DHT22;6735;51.456;12.626;2023-04-15T01:05:39;7.50;90.10
13332;DHT22;6735;51.456;12.626;2023-04-15T01:08:05;7.50;90.20
13332;DHT22;6735;51.456;12.626;2023-04-15T01:10:31;7.50;90.20
13332;DHT22;6735;51.456;12.626;2023-04-15T01:12:57;7.50;90.20
13332;DHT22;6735;51.456;12.626;2023-04-15T01:15:23;7.50;90.20
13332;DHT22;6735;51.456;12.626;2023-04-15T01:17:49;7.50;90.20
13332;DHT22;6735;51.456;12.626;2023-04-15T01:20:15;7.50;90.10
13332;DHT22;6735;51.456;12.626;2023-04-15T01:22:41;7.40;90.10
13332;DHT22;6735;51.456;12.626;2023-04-15T01:25:12;7.50;90.10
13332;DHT22;6735;51.456;12.626;2023-04-15T01:27:41;7.40;90.00
13332;DHT22;6735;51.456;12.626;2023-04-15T01:30:10;7.40;90.20
13332;DHT22;6735;51.456;12.626;2023-04-15T01:32:36;7.50;90.30
13332;DHT22;6735;51.456;12.626;2023-04-15T01:35:01;7.40;90.20
13332;DHT22;6735;51.456;12.626;2023-04-15T01:37:27;7.40;90.10
13332;DHT22;6735;51.456;12.626;2023-04-15T01:39:53;7.40;90.00
13332;DHT22;6735;51.456;12.626;2023-04-15T01:42:20;7.40;90.10
13332;DHT22;6735;51.456;12.626;2023-04-15T01:44:46;7.40;90.10
13332;DHT22;6735;51.456;12.626;2023-04-15T01:47:11;7.40;90.10
13332;DHT22;6735;51.456;12.626;2023-04-15T01:49:36;7.50;90.10
13332;DHT22;6735;51.456;12.626;2023-04-15T01:52:02;7.50;90.10
13332;DHT22;6735;51.456;12.626;2023-04-15T01:54:27;7.40;90.20
13332;DHT22;6735;51.456;12.626;2023-04-15T01:56:53;7.50;90.10
13332;DHT22;6735;51.456;12.626;2023-04-15T01:59:18;7.40;90.20
13332;DHT22;6735;51.456;12.626;2023-04-15T02:01:44;7.50;90.30
13332;DHT22;6735;51.456;12.626;2023-04-15T02:04:10;7.40;90.30
13332;DHT22;6735;51.456;12.626;2023-04-15T02:06:42;7.40;90.20
13332;DHT22;6735;51.456;12.626;2023-04-15T02:09:08;7.40;90.20
13332;DHT22;6735;51.456;12.626;2023-04-15T02:11:34;7.40;90.30
13332;DHT22;6735;51.456;12.626;2023-04-15T02:14:01;7.40;90.30
13332;DHT22;6735;51.456;12.626;2023-04-15T02:16:27;7.40;90.20
13332;DHT22;6735;51.456;12.626;2023-04-15T02:18:52;7.40;90.30
13332;DHT22;6735;51.456;12.626;2023-04-15T02:21:18;7.40;90.30
13332;DHT22;6735;51.456;12.626;2023-04-15T02:23:43;7.40;90.40
13332;DHT22;6735;51.456;12.626;2023-04-15T02:26:09;7.40;90.40
13332;DHT22;6735;51.456;12.626;2023-04-15T02:28:35;7.40;90.30
13332;DHT22;6735;51.456;12.626;2023-04-15T02:31:07;7.40;90.30
13332;DHT22;6735;51.456;12.626;2023-04-15T02:33:34;7.40;90.30
13332;DHT22;6735;51.456;12.626;2023-04-15T02:35:59;7.40;90.30
13332;DHT22;6735;51.456;12.626;2023-04-15T02:38:25;7.40;90.40
13332;DHT22;6735;51.456;12.626;2023-04-15T02:40:51;7.40;90.50
13332;DHT22;6735;51.456;12.626;2023-04-15T02:43:16;7.40;90.40
13332;DHT22;6735;51.456;12.626;2023-04-15T02:45:42;7.40;90.30
13332;DHT22;6735;51.456;12.626;2023-04-15T02:48:08;7.40;90.40
13332;DHT22;6735;51.456;12.626;2023-04-15T02:50:34;7.40;90.50
13332;DHT22;6735;51.456;12.626;2023-04-15T02:53:00;7.40;90.40
13332;DHT22;6735;51.456;12.626;2023-04-15T02:55:25;7.40;90.50
13332;DHT22;6735;51.456;12.626;2023-04-15T02:57:51;7.40;90.50
13332;DHT22;6735;51.456;12.626;2023-04-15T03:00:17;7.40;90.50
13332;DHT22;6735;51.456;12.626;2023-04-15T03:02:44;7.40;90.50
13332;DHT22;6735;51.456;12.626;2023-04-15T03:05:13;7.40;90.40
13332;DHT22;6735;51.456;12.626;2023-04-15T03:07:39;7.40;90.40
13332;DHT22;6735;51.456;12.626;2023-04-15T03:10:07;7.50;90.50
13332;DHT22;6735;51.456;12.626;2023-04-15T03:12:33;7.50;90.50
13332;DHT22;6735;51.456;12.626;2023-04-15T03:14:58;7.40;90.50
13332;DHT22;6735;51.456;12.626;2023-04-15T03:17:26;7.40;90.40
13332;DHT22;6735;51.456;12.626;2023-04-15T03:19:51;7.50;90.50
13332;DHT22;6735;51.456;12.626;2023-04-15T03:22:17;7.50;90.30
13332;DHT22;6735;51.456;12.626;2023-04-15T03:24:42;7.40;90.40
13332;DHT22;6735;51.456;12.626;2023-04-15T03:27:08;7.40;90.50
13332;DHT22;6735;51.456;12.626;2023-04-15T03:29:33;7.40;90.50
13332;DHT22;6735;51.456;12.626;2023-04-15T03:31:59;7.40;90.60
13332;DHT22;6735;51.456;12.626;2023-04-15T03:34:24;7.40;90.50
13332;DHT22;6735;51.456;12.626;2023-04-15T03:36:50;7.50;90.50
13332;DHT22;6735;51.456;12.626;2023-04-15T03:39:15;7.50;90.40
13332;DHT22;6735;51.456;12.626;2023-04-15T03:41:41;7.50;90.40
13332;DHT22;6735;51.456;12.626;2023-04-15T03:44:06;7.50;90.40
13332;DHT22;6735;51.456;12.626;2023-04-15T03:46:32;7.40;90.40
13332;DHT22;6735;51.456;12.626;2023-04-15T03:48:57;7.50;90.50
13332;DHT22;6735;51.456;12.626;2023-04-15T03:51:23;7.50;90.50
13332;DHT22;6735;51.456;12.626;2023-04-15T03:53:48;7.50;90.40
13332;DHT22;6735;51.456;12.626;2023-04-15T03:56:14;7.50;90.50
13332;DHT22;6735;51.456;12.626;2023-04-15T03:58:40;7.50;90.50
13332;DHT22;6735;51.456;12.626;2023-04-15T04:01:05;7.50;90.40
13332;DHT22;6735;51.456;12.626;2023-04-15T04:03:31;7.50;90.50
13332;DHT22;6735;51.456;12.626;2023-04-15T04:05:57;7.40;90.40
13332;DHT22;6735;51.456;12.626;2023-04-15T04:08:23;7.50;90.50
13332;DHT22;6735;51.456;12.626;2023-04-15T04:10:48;7.50;90.50
13332;DHT22;6735;51.456;12.626;2023-04-15T04:13:14;7.50;90.50
13332;DHT22;6735;51.456;12.626;2023-04-15T04:15:39;7.50;90.50
13332;DHT22;6735;51.456;12.626;2023-04-15T04:18:05;7.50;90.40
13332;DHT22;6735;51.456;12.626;2023-04-15T04:20:31;7.50;90.50
13332;DHT22;6735;51.456;12.626;2023-04-15T04:22:56;7.50;90.40
13332;DHT22;6735;51.456;12.626;2023-04-15T04:25:22;7.50;90.50
13332;DHT22;6735;51.456;12.626;2023-04-15T04:27:48;7.50;90.50
13332;DHT22;6735;51.456;12.626;2023-04-15T04:30:14;7.50;90.40
13332;DHT22;6735;51.456;12.626;2023-04-15T04:32:40;7.50;90.40
13332;DHT22;6735;51.456;12.626;2023-04-15T04:35:06;7.50;90.40
13332;DHT22;6735;51.456;12.626;2023-04-15T04:37:31;7.50;90.40
13332;DHT22;6735;51.456;12.626;2023-04-15T04:39:57;7.50;90.50
13332;DHT22;6735;51.456;12.626;2023-04-15T04:42:22;7.50;90.50
13332;DHT22;6735;51.456;12.626;2023-04-15T04:44:48;7.50;90.50
13332;DHT22;6735;51.456;12.626;2023-04-15T04:47:13;7.50;90.50
13332;DHT22;6735;51.456;12.626;2023-04-15T04:49:38;7.50;90.50
13332;DHT22;6735;51.456;12.626;2023-04-15T04:52:05;7.50;90.50
13332;DHT22;6735;51.456;12.626;2023-04-15T04:54:30;7.50;90.50
13332;DHT22;6735;51.456;12.626;2023-04-15T04:56:56;7.60;90.50
13332;DHT22;6735;51.456;12.626;2023-04-15T04:59:22;7.50;90.50
13332;DHT22;6735;51.456;12.626;2023-04-15T05:01:47;7.50;90.50
13332;DHT22;6735;51.456;12.626;2023-04-15T05:04:13;7.50;90.50
13332;DHT22;6735;51.456;12.626;2023-04-15T05:06:38;7.50;90.60
13332;DHT22;6735;51.456;12.626;2023-04-15T05:09:04;7.50;90.50
13332;DHT22;6735;51.456;12.626;2023-04-15T05:11:29;7.50;90.50
13332;DHT22;6735;51.456;12.626;2023-04-15T05:13:55;7.50;90.50
13332;DHT22;6735;51.456;12.626;2023-04-15T05:16:22;7.50;90.60
13332;DHT22;6735;51.456;12.626;2023-04-15T05:18:47;7.50;90.60
13332;DHT22;6735;51.456;12.626;2023-04-15T05:21:13;7.50;90.60
13332;DHT22;6735;51.456;12.626;2023-04-15T05:23:39;7.50;90.70
13332;DHT22;6735;51.456;12.626;2023-04-15T05:26:04;7.50;90.70
13332;DHT22;6735;51.456;12.626;2023-04-15T05:28:30;7.50;90.60
13332;DHT22;6735;51.456;12.626;2023-04-15T05:30:55;7.60;90.70
13332;DHT22;6735;51.456;12.626;2023-04-15T05:33:21;7.60;90.70
13332;DHT22;6735;51.456;12.626;2023-04-15T05:35:47;7.60;90.70
13332;DHT22;6735;51.456;12.626;2023-04-15T05:38:12;7.60;90.70
13332;DHT22;6735;51.456;12.626;2023-04-15T05:40:38;7.60;90.60
13332;DHT22;6735;51.456;12.626;2023-04-15T05:43:03;7.60;90.60
13332;DHT22;6735;51.456;12.626;2023-04-15T05:45:29;7.60;90.80
13332;DHT22;6735;51.456;12.626;2023-04-15T05:47:54;7.60;90.80
13332;DHT22;6735;51.456;12.626;2023-04-15T05:50:20;7.60;90.80
13332;DHT22;6735;51.456;12.626;2023-04-15T05:52:46;7.70;90.70
13332;DHT22;6735;51.456;12.626;2023-04-15T05:55:12;7.70;90.80
13332;DHT22;6735;51.456;12.626;2023-04-15T05:57:38;7.70;90.70
13332;DHT22;6735;51.456;12.626;2023-04-15T06:00:04;7.70;90.70
13332;DHT22;6735;51.456;12.626;2023-04-15T06:02:30;7.70;90.80
13332;DHT22;6735;51.456;12.626;2023-04-15T06:04:56;7.80;90.70
13332;DHT22;6735;51.456;12.626;2023-04-15T06:07:22;7.80;90.70
13332;DHT22;6735;51.456;12.626;2023-04-15T06:09:47;7.70;90.70
13332;DHT22;6735;51.456;12.626;2023-04-15T06:12:14;7.70;90.70
13332;DHT22;6735;51.456;12.626;2023-04-15T06:14:39;7.80;90.70
13332;DHT22;6735;51.456;12.626;2023-04-15T06:17:05;7.80;90.80
13332;DHT22;6735;51.456;12.626;2023-04-15T06:19:31;7.80;90.80
13332;DHT22;6735;51.456;12.626;2023-04-15T06:21:57;7.80;90.80
13332;DHT22;6735;51.456;12.626;2023-04-15T06:24:23;7.90;90.80
13332;DHT22;6735;51.456;12.626;2023-04-15T06:26:48;7.90;90.70
13332;DHT22;6735;51.456;12.626;2023-04-15T06:29:14;7.90;90.70
13332;DHT22;6735;51.456;12.626;2023-04-15T06:31:40;7.90;90.70
13332;DHT22;6735;51.456;12.626;2023-04-15T06:34:05;7.90;90.70
13332;DHT22;6735;51.456;12.626;2023-04-15T06:36:31;7.90;90.80
13332;DHT22;6735;51.456;12.626;2023-04-15T06:38:57;7.90;90.80
13332;DHT22;6735;51.456;12.626;2023-04-15T06:41:22;7.90;90.80
13332;DHT22;6735;51.456;12.626;2023-04-15T06:43:48;8.00;90.80
13332;DHT22;6735;51.456;12.626;2023-04-15T06:46:13;8.00;90.80
13332;DHT22;6735;51.456;12.626;2023-04-15T06:48:39;8.10;90.80
13332;DHT22;6735;51.456;12.626;2023-04-15T06:51:04;8.10;90.80
13332;DHT22;6735;51.456;12.626;2023-04-15T06:53:30;8.10;90.70
13332;DHT22;6735;51.456;12.626;2023-04-15T06:55:56;8.20;90.70
13332;DHT22;6735;51.456;12.626;2023-04-15T06:58:21;8.20;90.70
13332;DHT22;6735;51.456;12.626;2023-04-15T07:00:47;8.20;90.80
13332;DHT22;6735;51.456;12.626;2023-04-15T07:03:13;8.20;90.70
13332;DHT22;6735;51.456;12.626;2023-04-15T07:05:39;8.20;90.70
13332;DHT22;6735;51.456;12.626;2023-04-15T07:08:05;8.30;90.80
13332;DHT22;6735;51.456;12.626;2023-04-15T07:10:32;8.30;90.80
13332;DHT22;6735;51.456;12.626;2023-04-15T07:12:58;8.20;90.80
13332;DHT22;6735;51.456;12.626;2023-04-15T07:15:23;8.20;90.80
13332;DHT22;6735;51.456;12.626;2023-04-15T07:17:49;8.30;90.80
13332;DHT22;6735;51.456;12.626;2023-04-15T07:20:14;8.30;90.90
13332;DHT22;6735;51.456;12.626;2023-04-15T07:22:40;8.30;90.90
13332;DHT22;6735;51.456;12.626;2023-04-15T07:25:06;8.30;90.90
13332;DHT22;6735;51.456;12.626;2023-04-15T07:27:32;8.40;91.00
13332;DHT22;6735;51.456;12.626;2023-04-15T07:29:57;8.40;90.90
13332;DHT22;6735;51.456;12.626;2023-04-15T07:32:23;8.50;91.00
13332;DHT22;6735;51.456;12.626;2023-04-15T07:34:48;8.50;91.00
13332;DHT22;6735;51.456;12.626;2023-04-15T07:37:14;8.50;91.10
13332;DHT22;6735;51.456;12.626;2023-04-15T07:39:39;8.60;91.10
13332;DHT22;6735;51.456;12.626;2023-04-15T07:42:05;8.60;91.10
13332;DHT22;6735;51.456;12.626;2023-04-15T07:44:31;8.60;91.10
13332;DHT22;6735;51.456;12.626;2023-04-15T07:46:56;8.60;91.20
13332;DHT22;6735;51.456;12.626;2023-04-15T07:49:22;8.70;91.20
13332;DHT22;6735;51.456;12.626;2023-04-15T07:51:47;8.70;91.30
13332;DHT22;6735;51.456;12.626;2023-04-15T07:54:13;8.70;91.30
13332;DHT22;6735;51.456;12.626;2023-04-15T07:56:39;8.70;91.20
13332;DHT22;6735;51.456;12.626;2023-04-15T07:59:05;8.80;91.30
13332;DHT22;6735;51.456;12.626;2023-04-15T08:01:31;8.80;91.20
13332;DHT22;6735;51.456;12.626;2023-04-15T08:03:57;8.80;91.20
13332;DHT22;6735;51.456;12.626;2023-04-15T08:06:23;8.90;91.20
13332;DHT22;6735;51.456;12.626;2023-04-15T08:08:49;8.90;91.20
13332;DHT22;6735;51.456;12.626;2023-04-15T08:11:14;8.90;91.20
13332;DHT22;6735;51.456;12.626;2023-04-15T08:13:40;8.90;91.10
13332;DHT22;6735;51.456;12.626;2023-04-15T08:16:26;8.90;91.10
13332;DHT22;6735;51.456;12.626;2023-04-15T08:18:55;8.90;91.10
13332;DHT22;6735;51.456;12.626;2023-04-15T08:21:22;8.90;91.20
13332;DHT22;6735;51.456;12.626;2023-04-15T08:23:48;8.90;91.10
13332;DHT22;6735;51.456;12.626;2023-04-15T08:26:15;8.90;91.10
13332;DHT22;6735;51.456;12.626;2023-04-15T08:28:42;8.90;91.20
13332;DHT22;6735;51.456;12.626;2023-04-15T08:31:08;9.00;91.30
13332;DHT22;6735;51.456;12.626;2023-04-15T08:33:34;9.00;91.20
13332;DHT22;6735;51.456;12.626;2023-04-15T08:35:59;9.10;91.30
13332;DHT22;6735;51.456;12.626;2023-04-15T08:38:25;9.10;91.30
13332;DHT22;6735;51.456;12.626;2023-04-15T08:40:51;9.10;91.30
13332;DHT22;6735;51.456;12.626;2023-04-15T08:43:21;9.10;91.30
13332;DHT22;6735;51.456;12.626;2023-04-15T08:45:51;9.10;91.20
13332;DHT22;6735;51.456;12.626;2023-04-15T08:48:17;9.20;91.20
13332;DHT22;6735;51.456;12.626;2023-04-15T08:50:44;9.20;91.20
13332;DHT22;6735;51.456;12.626;2023-04-15T08:53:10;9.20;91.30
13332;DHT22;6735;51.456;12.626;2023-04-15T08:55:41;9.30;91.30
13332;DHT22;6735;51.456;12.626;2023-04-15T08:58:09;9.40;91.20
13332;DHT22;6735;51.456;12.626;2023-04-15T09:00:35;9.40;91.20
13332;DHT22;6735;51.456;12.626;2023-04-15T09:03:03;9.50;91.10
13332;DHT22;6735;51.456;12.626;2023-04-15T09:05:31;9.50;91.10
13332;DHT22;6735;51.456;12.626;2023-04-15T09:07:58;9.60;91.10
13332;DHT22;6735;51.456;12.626;2023-04-15T09:10:23;9.60;91.10
13332;DHT22;6735;51.456;12.626;2023-04-15T09:12:48;9.70;91.10
13332;DHT22;6735;51.456;12.626;2023-04-15T09:15:14;9.70;91.10
13332;DHT22;6735;51.456;12.626;2023-04-15T09:17:44;9.80;91.00
13332;DHT22;6735;51.456;12.626;2023-04-15T09:20:12;9.80;91.10
13332;DHT22;6735;51.456;12.626;2023-04-15T09:22:39;9.80;91.00
13332;DHT22;6735;51.456;12.626;2023-04-15T09:27:53;9.90;91.00
13332;DHT22;6735;51.456;12.626;2023-04-15T09:30:19;9.80;91.10
13332;DHT22;6735;51.456;12.626;2023-04-15T09:32:52;9.90;91.00
13332;DHT22;6735;51.456;12.626;2023-04-15T09:35:18;9.90;91.10
13332;DHT22;6735;51.456;12.626;2023-04-15T09:37:44;9.90;91.10
13332;DHT22;6735;51.456;12.626;2023-04-15T09:40:10;9.90;91.10
13332;DHT22;6735;51.456;12.626;2023-04-15T09:42:36;10.00;91.10
13332;DHT22;6735;51.456;12.626;2023-04-15T09:45:14;10.00;91.00
13332;DHT22;6735;51.456;12.626;2023-04-15T09:47:40;10.00;91.10
13332;DHT22;6735;51.456;12.626;2023-04-15T09:50:06;10.10;91.10
13332;DHT22;6735;51.456;12.626;2023-04-15T09:52:31;10.10;91.10
13332;DHT22;6735;51.456;12.626;2023-04-15T09:54:58;10.10;91.00
13332;DHT22;6735;51.456;12.626;2023-04-15T09:57:24;10.10;91.00
13332;DHT22;6735;51.456;12.626;2023-04-15T09:59:57;10.10;91.00
13332;DHT22;6735;51.456;12.626;2023-04-15T10:02:22;10.20;91.00
13332;DHT22;6735;51.456;12.626;2023-04-15T10:04:48;10.20;90.90
13332;DHT22;6735;51.456;12.626;2023-04-15T10:07:14;10.20;90.90
13332;DHT22;6735;51.456;12.626;2023-04-15T10:09:42;10.30;90.80
13332;DHT22;6735;51.456;12.626;2023-04-15T10:12:10;10.20;90.90
13332;DHT22;6735;51.456;12.626;2023-04-15T10:14:37;10.20;90.80
13332;DHT22;6735;51.456;12.626;2023-04-15T10:17:04;10.20;90.70
13332;DHT22;6735;51.456;12.626;2023-04-15T10:19:36;10.20;90.80
13332;DHT22;6735;51.456;12.626;2023-04-15T10:22:02;10.20;90.80
13332;DHT22;6735;51.456;12.626;2023-04-15T10:24:32;10.30;90.80
13332;DHT22;6735;51.456;12.626;2023-04-15T10:26:58;10.30;90.60
13332;DHT22;6735;51.456;12.626;2023-04-15T10:29:24;10.40;90.70
13332;DHT22;6735;51.456;12.626;2023-04-15T10:31:53;10.40;90.50
13332;DHT22;6735;51.456;12.626;2023-04-15T10:34:19;10.40;90.60
13332;DHT22;6735;51.456;12.626;2023-04-15T10:36:45;10.50;90.60
13332;DHT22;6735;51.456;12.626;2023-04-15T10:39:44;10.50;90.50
13332;DHT22;6735;51.456;12.626;2023-04-15T10:42:17;10.50;90.50
13332;DHT22;6735;51.456;12.626;2023-04-15T10:44:48;10.60;90.40
13332;DHT22;6735;51.456;12.626;2023-04-15T10:47:17;10.60;90.40
13332;DHT22;6735;51.456;12.626;2023-04-15T10:49:46;10.60;90.30
13332;DHT22;6735;51.456;12.626;2023-04-15T10:52:12;10.70;90.40
13332;DHT22;6735;51.456;12.626;2023-04-15T10:54:38;10.60;90.10
13332;DHT22;6735;51.456;12.626;2023-04-15T11:00:00;10.70;90.20
13332;DHT22;6735;51.456;12.626;2023-04-15T11:03:07;10.70;90.20
13332;DHT22;6735;51.456;12.626;2023-04-15T11:08:10;10.60;90.00
13332;DHT22;6735;51.456;12.626;2023-04-15T11:13:13;10.60;90.10
13332;DHT22;6735;51.456;12.626;2023-04-15T11:15:47;10.50;90.10
13332;DHT22;6735;51.456;12.626;2023-04-15T11:18:18;10.50;90.20
13332;DHT22;6735;51.456;12.626;2023-04-15T11:20:49;10.50;90.30
13332;DHT22;6735;51.456;12.626;2023-04-15T11:23:16;10.50;90.30
13332;DHT22;6735;51.456;12.626;2023-04-15T11:25:42;10.50;90.30
13332;DHT22;6735;51.456;12.626;2023-04-15T11:28:07;10.50;90.30
13332;DHT22;6735;51.456;12.626;2023-04-15T11:30:34;10.50;90.30
13332;DHT22;6735;51.456;12.626;2023-04-15T11:33:08;10.50;90.30
13332;DHT22;6735;51.456;12.626;2023-04-15T11:35:34;10.60;90.40
13332;DHT22;6735;51.456;12.626;2023-04-15T11:38:18;10.50;90.30
13332;DHT22;6735;51.456;12.626;2023-04-15T11:40:44;10.60;90.40
13332;DHT22;6735;51.456;12.626;2023-04-15T11:43:15;10.50;90.40
13332;DHT22;6735;51.456;12.626;2023-04-15T11:48:13;10.50;90.40
13332;DHT22;6735;51.456;12.626;2023-04-15T11:50:39;10.50;90.50
13332;DHT22;6735;51.456;12.626;2023-04-15T11:53:07;10.60;90.50
13332;DHT22;6735;51.456;12.626;2023-04-15T11:55:46;10.60;90.50
13332;DHT22;6735;51.456;12.626;2023-04-15T11:58:23;10.60;90.40
13332;DHT22;6735;51.456;12.626;2023-04-15T12:00:57;10.60;90.40
13332;DHT22;6735;51.456;12.626;2023-04-15T12:03:26;10.50;90.40
13332;DHT22;6735;51.456;12.626;2023-04-15T12:08:47;10.60;90.50
13332;DHT22;6735;51.456;12.626;2023-04-15T12:11:17;10.70;90.40
13332;DHT22;6735;51.456;12.626;2023-04-15T12:13:47;10.70;90.30
13332;DHT22;6735;51.456;12.626;2023-04-15T12:16:16;10.70;90.20
13332;DHT22;6735;51.456;12.626;2023-04-15T12:18:54;10.80;90.20
13332;DHT22;6735;51.456;12.626;2023-04-15T12:21:32;10.80;90.20
13332;DHT22;6735;51.456;12.626;2023-04-15T12:24:01;10.90;90.20
13332;DHT22;6735;51.456;12.626;2023-04-15T12:26:30;10.90;90.10
13332;DHT22;6735;51.456;12.626;2023-04-15T12:29:10;11.00;90.00
13332;DHT22;6735;51.456;12.626;2023-04-15T12:31:42;11.10;90.10
13332;DHT22;6735;51.456;12.626;2023-04-15T12:34:10;11.10;90.00
13332;DHT22;6735;51.456;12.626;2023-04-15T12:36:36;11.00;89.60
13332;DHT22;6735;51.456;12.626;2023-04-15T12:39:05;11.10;89.90
13332;DHT22;6735;51.456;12.626;2023-04-15T12:41:34;11.10;89.80
13332;DHT22;6735;51.456;12.626;2023-04-15T12:43:59;11.10;89.70
13332;DHT22;6735;51.456;12.626;2023-04-15T12:46:25;11.20;89.70
13332;DHT22;6735;51.456;12.626;2023-04-15T12:48:51;11.20;89.70
13332;DHT22;6735;51.456;12.626;2023-04-15T12:51:17;11.30;89.60
13332;DHT22;6735;51.456;12.626;2023-04-15T12:53:43;11.20;89.30
13332;DHT22;6735;51.456;12.626;2023-04-15T12:56:08;11.20;89.40
13332;DHT22;6735;51.456;12.626;2023-04-15T12:58:34;11.30;89.40
13332;DHT22;6735;51.456;12.626;2023-04-15T13:01:00;11.30;89.30
13332;DHT22;6735;51.456;12.626;2023-04-15T13:03:25;11.30;89.30
13332;DHT22;6735;51.456;12.626;2023-04-15T13:05:51;11.30;89.30
13332;DHT22;6735;51.456;12.626;2023-04-15T13:08:17;11.40;89.40
13332;DHT22;6735;51.456;12.626;2023-04-15T13:10:43;11.40;89.30
13332;DHT22;6735;51.456;12.626;2023-04-15T13:13:08;11.40;88.90
13332;DHT22;6735;51.456;12.626;2023-04-15T13:15:34;11.40;89.20
13332;DHT22;6735;51.456;12.626;2023-04-15T13:17:59;11.50;89.20
13332;DHT22;6735;51.456;12.626;2023-04-15T13:20:25;11.60;89.00
13332;DHT22;6735;51.456;12.626;2023-04-15T13:22:53;11.60;89.00
13332;DHT22;6735;51.456;12.626;2023-04-15T13:25:19;11.60;88.90
13332;DHT22;6735;51.456;12.626;2023-04-15T13:27:44;11.60;88.80
13332;DHT22;6735;51.456;12.626;2023-04-15T13:30:11;11.70;88.80
13332;DHT22;6735;51.456;12.626;2023-04-15T13:32:36;11.70;88.70
13332;DHT22;6735;51.456;12.626;2023-04-15T13:35:02;11.80;88.60
13332;DHT22;6735;51.456;12.626;2023-04-15T13:37:28;11.80;88.30
13332;DHT22;6735;51.456;12.626;2023-04-15T13:39:54;11.90;88.50
13332;DHT22;6735;51.456;12.626;2023-04-15T13:42:21;11.90;88.40
13332;DHT22;6735;51.456;12.626;2023-04-15T13:44:46;11.90;88.40
13332;DHT22;6735;51.456;12.626;2023-04-15T13:47:12;11.90;88.40
13332;DHT22;6735;51.456;12.626;2023-04-15T13:49:39;11.90;88.20
13332;DHT22;6735;51.456;12.626;2023-04-15T13:52:05;11.80;88.30
13332;DHT22;6735;51.456;12.626;2023-04-15T13:54:30;11.70;88.30
13332;DHT22;6735;51.456;12.626;2023-04-15T13:56:55;11.70;88.40
13332;DHT22;6735;51.456;12.626;2023-04-15T13:59:22;11.60;88.50
13332;DHT22;6735;51.456;12.626;2023-04-15T14:01:47;11.60;88.50
13332;DHT22;6735;51.456;12.626;2023-04-15T14:04:13;11.50;88.60
13332;DHT22;6735;51.456;12.626;2023-04-15T14:06:39;11.50;88.70
13332;DHT22;6735;51.456;12.626;2023-04-15T14:09:04;11.50;88.80
13332;DHT22;6735;51.456;12.626;2023-04-15T14:11:30;11.50;88.70
13332;DHT22;6735;51.456;12.626;2023-04-15T14:13:55;11.60;88.90
13332;DHT22;6735;51.456;12.626;2023-04-15T14:16:21;11.60;88.80
13332;DHT22;6735;51.456;12.626;2023-04-15T14:18:47;11.60;88.90
13332;DHT22;6735;51.456;12.626;2023-04-15T14:21:12;11.70;88.90
13332;DHT22;6735;51.456;12.626;2023-04-15T14:23:38;11.70;88.80
13332;DHT22;6735;51.456;12.626;2023-04-15T14:26:03;11.70;88.70
13332;DHT22;6735;51.456;12.626;2023-04-15T14:28:29;11.70;88.60
13332;DHT22;6735;51.456;12.626;2023-04-15T14:30:54;11.60;88.80
13332;DHT22;6735;51.456;12.626;2023-04-15T14:33:20;11.70;88.80
13332;DHT22;6735;51.456;12.626;2023-04-15T14:35:46;11.80;88.90
13332;DHT22;6735;51.456;12.626;2023-04-15T14:38:11;12.00;88.90
13332;DHT22;6735;51.456;12.626;2023-04-15T14:40:37;12.10;88.70
13332;DHT22;6735;51.456;12.626;2023-04-15T14:43:02;12.20;88.00
13332;DHT22;6735;51.456;12.626;2023-04-15T14:45:29;12.30;88.00
13332;DHT22;6735;51.456;12.626;2023-04-15T14:47:55;12.40;88.00
13332;DHT22;6735;51.456;12.626;2023-04-15T14:50:21;12.40;87.10
13332;DHT22;6735;51.456;12.626;2023-04-15T14:52:46;12.30;86.80
13332;DHT22;6735;51.456;12.626;2023-04-15T14:55:12;12.40;86.80
13332;DHT22;6735;51.456;12.626;2023-04-15T14:57:39;12.50;86.90
13332;DHT22;6735;51.456;12.626;2023-04-15T15:00:06;12.50;87.00
13332;DHT22;6735;51.456;12.626;2023-04-15T15:02:32;12.50;86.60
13332;DHT22;6735;51.456;12.626;2023-04-15T15:04:59;12.60;86.60
13332;DHT22;6735;51.456;12.626;2023-04-15T15:07:25;12.60;86.80
13332;DHT22;6735;51.456;12.626;2023-04-15T15:09:50;12.50;86.50
13332;DHT22;6735;51.456;12.626;2023-04-15T15:12:16;12.50;86.60
13332;DHT22;6735;51.456;12.626;2023-04-15T15:14:41;12.60;86.50
13332;DHT22;6735;51.456;12.626;2023-04-15T15:17:07;12.50;86.20
13332;DHT22;6735;51.456;12.626;2023-04-15T15:19:32;12.50;86.50
13332;DHT22;6735;51.456;12.626;2023-04-15T15:21:58;12.50;86.20
13332;DHT22;6735;51.456;12.626;2023-04-15T15:24:23;12.40;86.10
13332;DHT22;6735;51.456;12.626;2023-04-15T15:26:49;12.40;86.40
13332;DHT22;6735;51.456;12.626;2023-04-15T15:29:14;12.40;86.30
13332;DHT22;6735;51.456;12.626;2023-04-15T15:31:40;12.40;86.10
13332;DHT22;6735;51.456;12.626;2023-04-15T15:34:05;12.40;86.40
13332;DHT22;6735;51.456;12.626;2023-04-15T15:36:31;12.40;86.40
13332;DHT22;6735;51.456;12.626;2023-04-15T15:38:57;12.40;86.30
13332;DHT22;6735;51.456;12.626;2023-04-15T15:41:23;12.40;86.50
13332;DHT22;6735;51.456;12.626;2023-04-15T15:43:49;12.30;86.60
13332;DHT22;6735;51.456;12.626;2023-04-15T15:46:15;12.30;86.70
13332;DHT22;6735;51.456;12.626;2023-04-15T15:48:40;12.30;86.60
13332;DHT22;6735;51.456;12.626;2023-04-15T15:51:06;12.20;86.50
13332;DHT22;6735;51.456;12.626;2023-04-15T15:53:33;12.20;86.80